Terminal Aerodrome Forecast
Issued by NWS Twin Cities, MN

Home | Current Version | Previous Version | Text Only | Print | Product List | Glossary Off
Versions: 1 2 3 4 5 6 7 8 9 10 11 12 13 14

000
FTUS43 KMPX 251100 RRA
TAFSTC
TAF
KSTC 251145Z 2512/2612 20008KT P6SM BKN011 OVC040
     FM251500 23005KT 2SM -SN BR SCT009 OVC015
     FM251900 33004KT 6SM -SN SCT009 OVC020
     FM260300 36004KT P6SM OVC008=

USA.gov is the U.S. government's official web portal to all federal, state and local government web resources and services.